Time;durP1;ratioP1;P1;durP2;ratioP2;P2;SDS_P1;SDS_P2;PMS_P1;PMS_P2;Temp;Humidity;BMP_temperature;BMP_pressure;BME280_temperature;BME280_humidity;BME280_pressure;Samples;Min_cycle;Max_cycle;Signal;HPM_P1;HPM_P2
2023/01/14 00:00:23;;;;;;;;;;;;;;;;;;5008503;28;20248;-82
2023/01/14 00:02:50;;;;;;;;;;;;;;;;;;4994265;28;20015;-81
2023/01/14 00:05:19;;;;;;;;;;;;;;;;;;5025207;28;21662;-81
2023/01/14 00:07:47;;;;;;;;;;;;;;;;;;4993784;28;19921;-81
2023/01/14 00:10:16;;;;;;;;;;;;;;;;;;5004809;28;20501;-82
2023/01/14 00:12:45;;;;;;;;;;;;;;;;;;5003676;28;20376;-81
2023/01/14 00:15:15;;;;;;;;;;;;;;;;;;5015283;28;20677;-81
2023/01/14 00:17:41;;;;;;;;;;;;;;;;;;5027303;28;20556;-81
2023/01/14 00:20:30;;;;;;;;;;;;;;;;;;5016805;28;21446;-81
2023/01/14 00:22:58;;;;;;;;;;;;;;;;;;5028042;28;20003;-81
2023/01/14 00:25:59;;;;;;;;;;;;;;;;;;4993285;28;20511;-81
2023/01/14 00:28:28;;;;;;;;;;;;;;;;;;4993206;28;20579;-81
2023/01/14 00:30:54;;;;;;;;;;;;;;;;;;4996966;28;19926;-81
2023/01/14 00:33:21;;;;;;;;;;;;;;;;;;4996538;28;19925;-81
2023/01/14 00:35:47;;;;;;;;;;;;;;;;;;4978559;28;19955;-82
2023/01/14 00:38:13;;;;;;;;;;;;;;;;;;4977725;28;20368;-82
2023/01/14 00:40:39;;;;;;;;;;;;;;;;;;4978987;28;19925;-80
2023/01/14 00:43:26;;;;;;;;;;;;;;;;;;4995611;28;19928;-81
2023/01/14 00:45:52;;;;;;;;;;;;;;;;;;4995039;28;19925;-81
2023/01/14 00:48:18;;;;;;;;;;;;;;;;;;4999406;28;21493;-87
2023/01/14 00:50:44;;;;;;;;;;;;;;;;;;4996248;28;19928;-87
2023/01/14 00:53:10;;;;;;;;;;;;;;;;;;4979128;28;19930;-89
2023/01/14 00:55:36;;;;;;;;;;;;;;;;;;4996694;28;20275;-88
2023/01/14 00:58:02;;;;;;;;;;;;;;;;;;5019659;28;19925;-87
2023/01/14 01:00:28;;;;;;;;;;;;;;;;;;5005503;28;20709;-88
2023/01/14 01:02:54;;;;;;;;;;;;;;;;;;5007901;28;19920;-87
2023/01/14 01:05:19;;;;;;;;;;;;;;;;;;5014358;28;19931;-87
2023/01/14 01:07:45;;;;;;;;;;;;;;;;;;5020868;28;19931;-89
2023/01/14 01:10:11;;;;;;;;;;;;;;;;;;5019668;28;19931;-88
2023/01/14 01:12:37;;;;;;;;;;;;;;;;;;5020254;28;19932;-89
2023/01/14 01:15:03;;;;;;;;;;;;;;;;;;5006075;28;19921;-89
2023/01/14 01:17:29;;;;;;;;;;;;;;;;;;5019912;28;19932;-87
2023/01/14 01:19:55;;;;;;;;;;;;;;;;;;5019637;28;20418;-91
2023/01/14 01:22:21;;;;;;;;;;;;;;;;;;5019633;28;19928;-89
2023/01/14 01:24:47;;;;;;;;;;;;;;;;;;5021731;28;19924;-88
2023/01/14 01:27:13;;;;;;;;;;;;;;;;;;5020644;28;20781;-88
2023/01/14 01:29:39;;;;;;;;;;;;;;;;;;5020535;28;19935;-91
2023/01/14 01:32:05;;;;;;;;;;;;;;;;;;5021069;28;21187;-88
2023/01/14 01:34:31;;;;;;;;;;;;;;;;;;5017669;28;19964;-88
2023/01/14 01:36:57;;;;;;;;;;;;;;;;;;5008386;28;19925;-88
2023/01/14 01:39:22;;;;;;;;;;;;;;;;;;5005252;28;19921;-89
2023/01/14 01:41:48;;;;;;;;;;;;;;;;;;5008907;28;19929;-87
2023/01/14 01:44:14;;;;;;;;;;;;;;;;;;5019628;28;19925;-81
2023/01/14 01:46:40;;;;;;;;;;;;;;;;;;5009393;28;19931;-81
2023/01/14 01:49:06;;;;;;;;;;;;;;;;;;5010900;28;19929;-81
2023/01/14 01:51:33;;;;;;;;;;;;;;;;;;5018801;28;21806;-81
2023/01/14 01:54:27;;;;;;;;;;;;;;;;;;5019468;28;19966;-81
2023/01/14 01:57:02;;;;;;;;;;;;;;;;;;5020337;28;20058;-81
2023/01/14 01:59:31;;;;;;;;;;;;;;;;;;4981234;28;19926;-81
2023/01/14 02:01:57;;;;;;;;;;;;;;;;;;4965013;28;19932;-80
2023/01/14 02:04:23;;;;;;;;;;;;;;;;;;4953654;28;19925;-82
2023/01/14 02:06:49;;;;;;;;;;;;;;;;;;4961208;28;19930;-82
2023/01/14 02:09:15;;;;;;;;;;;;;;;;;;4969057;28;19936;-83
2023/01/14 02:11:41;;;;;;;;;;;;;;;;;;4987457;28;19921;-82
2023/01/14 02:14:07;;;;;;;;;;;;;;;;;;4969898;28;20359;-82
2023/01/14 02:16:33;;;;;;;;;;;;;;;;;;4985398;28;19921;-82
2023/01/14 02:18:59;;;;;;;;;;;;;;;;;;4984262;28;20419;-81
2023/01/14 02:21:28;;;;;;;;;;;;;;;;;;4966996;28;20845;-82
2023/01/14 02:23:57;;;;;;;;;;;;;;;;;;4969486;28;19925;-87
2023/01/14 02:26:23;;;;;;;;;;;;;;;;;;4970467;28;19930;-85
2023/01/14 02:28:49;;;;;;;;;;;;;;;;;;4969694;28;21129;-86
2023/01/14 02:31:15;;;;;;;;;;;;;;;;;;5007621;28;20002;-88
2023/01/14 02:33:41;;;;;;;;;;;;;;;;;;5011227;28;19925;-88
2023/01/14 02:36:06;;;;;;;;;;;;;;;;;;5020898;28;19936;-88
2023/01/14 02:38:32;;;;;;;;;;;;;;;;;;5021979;28;19929;-87
2023/01/14 02:40:58;;;;;;;;;;;;;;;;;;5021120;28;21637;-86
2023/01/14 02:46:09;;;;;;;;;;;;;;;;;;5021457;28;20473;-88
2023/01/14 02:48:35;;;;;;;;;;;;;;;;;;5011603;28;20470;-90
2023/01/14 02:51:01;;;;;;;;;;;;;;;;;;5022377;28;19934;-89
2023/01/14 02:53:27;;;;;;;;;;;;;;;;;;5023249;28;19924;-87
2023/01/14 02:55:53;;;;;;;;;;;;;;;;;;5021768;28;21269;-87
2023/01/14 02:58:19;;;;;;;;;;;;;;;;;;5022425;28;20314;-88
2023/01/14 03:00:45;;;;;;;;;;;;;;;;;;5025871;28;19935;-89
2023/01/14 03:03:11;;;;;;;;;;;;;;;;;;5022087;28;20034;-88
2023/01/14 03:05:37;;;;;;;;;;;;;;;;;;5021921;28;20043;-87
2023/01/14 03:08:03;;;;;;;;;;;;;;;;;;5021344;28;19943;-87
2023/01/14 03:10:29;;;;;;;;;;;;;;;;;;5018731;28;19932;-86
2023/01/14 03:12:55;;;;;;;;;;;;;;;;;;5021278;28;19925;-88
2023/01/14 03:15:20;;;;;;;;;;;;;;;;;;5008620;28;19950;-88
2023/01/14 03:17:46;;;;;;;;;;;;;;;;;;5021682;28;19932;-86
2023/01/14 03:20:12;;;;;;;;;;;;;;;;;;5020200;28;20443;-85
2023/01/14 03:22:38;;;;;;;;;;;;;;;;;;5017604;28;19921;-86
2023/01/14 03:25:04;;;;;;;;;;;;;;;;;;5019477;28;19932;-86
2023/01/14 03:27:30;;;;;;;;;;;;;;;;;;5006525;28;19935;-84
2023/01/14 03:29:56;;;;;;;;;;;;;;;;;;5019607;28;20231;-83
2023/01/14 03:32:22;;;;;;;;;;;;;;;;;;5018420;28;20089;-85
2023/01/14 03:34:48;;;;;;;;;;;;;;;;;;5021041;28;19925;-86
2023/01/14 03:37:14;;;;;;;;;;;;;;;;;;5023076;28;19945;-84
2023/01/14 03:39:40;;;;;;;;;;;;;;;;;;5021219;28;20635;-86
2023/01/14 03:42:18;;;;;;;;;;;;;;;;;;5018182;28;20288;-82
2023/01/14 03:44:44;;;;;;;;;;;;;;;;;;5018514;28;19983;-81
2023/01/14 03:47:10;;;;;;;;;;;;;;;;;;5036499;28;21610;-82
2023/01/14 03:49:36;;;;;;;;;;;;;;;;;;5018636;28;19931;-81
2023/01/14 03:52:02;;;;;;;;;;;;;;;;;;5019900;28;19932;-81
2023/01/14 03:54:28;;;;;;;;;;;;;;;;;;5019846;28;19921;-81
2023/01/14 03:56:54;;;;;;;;;;;;;;;;;;5018948;28;19929;-81
2023/01/14 03:59:20;;;;;;;;;;;;;;;;;;5020080;28;20659;-82
2023/01/14 04:01:46;;;;;;;;;;;;;;;;;;5019023;28;20422;-86
2023/01/14 04:04:12;;;;;;;;;;;;;;;;;;5013162;28;19941;-87
2023/01/14 04:06:38;;;;;;;;;;;;;;;;;;5037275;28;19986;-85
2023/01/14 04:09:04;;;;;;;;;;;;;;;;;;5022675;28;19925;-87
2023/01/14 04:11:30;;;;;;;;;;;;;;;;;;5020485;28;19964;-87
2023/01/14 04:16:42;;;;;;;;;;;;;;;;;;5024570;28;19964;-88
2023/01/14 04:19:08;;;;;;;;;;;;;;;;;;5014229;28;20011;-87
2023/01/14 04:21:34;;;;;;;;;;;;;;;;;;5024445;28;20011;-87
2023/01/14 04:24:00;;;;;;;;;;;;;;;;;;5023088;28;19947;-86
2023/01/14 04:26:28;;;;;;;;;;;;;;;;;;5023413;28;20268;-86
2023/01/14 04:28:53;;;;;;;;;;;;;;;;;;5019607;28;20108;-86
2023/01/14 04:31:19;;;;;;;;;;;;;;;;;;5026485;28;19924;-85
2023/01/14 04:33:45;;;;;;;;;;;;;;;;;;5012256;28;19924;-86
2023/01/14 04:36:11;;;;;;;;;;;;;;;;;;5026575;28;19998;-87
2023/01/14 04:38:37;;;;;;;;;;;;;;;;;;5025242;28;19972;-86
2023/01/14 04:41:03;;;;;;;;;;;;;;;;;;5013212;28;20093;-86
2023/01/14 04:43:29;;;;;;;;;;;;;;;;;;5018731;28;20007;-86
2023/01/14 04:45:55;;;;;;;;;;;;;;;;;;5035745;28;20017;-86
2023/01/14 04:48:21;;;;;;;;;;;;;;;;;;5012731;28;19979;-87
2023/01/14 04:50:47;;;;;;;;;;;;;;;;;;5024381;28;19932;-87
2023/01/14 04:53:13;;;;;;;;;;;;;;;;;;5023639;28;20517;-87
2023/01/14 04:55:39;;;;;;;;;;;;;;;;;;5025345;28;20725;-87
2023/01/14 04:58:05;;;;;;;;;;;;;;;;;;5024362;28;19921;-87
2023/01/14 05:00:31;;;;;;;;;;;;;;;;;;5008805;28;19924;-86
2023/01/14 05:02:57;;;;;;;;;;;;;;;;;;5023112;28;20362;-86
2023/01/14 05:05:23;;;;;;;;;;;;;;;;;;5023932;28;19924;-85
2023/01/14 05:07:49;;;;;;;;;;;;;;;;;;5025188;28;19931;-84
2023/01/14 05:10:15;;;;;;;;;;;;;;;;;;5024092;28;19924;-86
2023/01/14 05:12:55;;;;;;;;;;;;;;;;;;5023035;28;20062;-87
2023/01/14 05:15:21;;;;;;;;;;;;;;;;;;5019282;28;20402;-87
2023/01/14 05:17:47;;;;;;;;;;;;;;;;;;5017615;28;20017;-86
2023/01/14 05:20:13;;;;;;;;;;;;;;;;;;5021882;28;21694;-87
2023/01/14 05:22:39;;;;;;;;;;;;;;;;;;5007737;28;20429;-85
2023/01/14 05:25:05;;;;;;;;;;;;;;;;;;5018745;28;20304;-87
2023/01/14 05:27:31;;;;;;;;;;;;;;;;;;5017034;28;19986;-85
2023/01/14 05:30:02;;;;;;;;;;;;;;;;;;5019614;28;20296;-87
2023/01/14 05:32:28;;;;;;;;;;;;;;;;;;5021897;28;19921;-81
2023/01/14 05:34:54;;;;;;;;;;;;;;;;;;5018082;28;19928;-81
2023/01/14 05:37:20;;;;;;;;;;;;;;;;;;5017097;28;19920;-82
2023/01/14 05:39:45;;;;;;;;;;;;;;;;;;5016392;28;19932;-81
2023/01/14 05:47:41;;;;;;;;;;;;;;;;;;5017119;28;19975;-81
2023/01/14 05:50:07;;;;;;;;;;;;;;;;;;5006454;28;20014;-81
2023/01/14 05:52:33;;;;;;;;;;;;;;;;;;5017431;28;20212;-85
2023/01/14 05:54:59;;;;;;;;;;;;;;;;;;5017482;28;19935;-84
2023/01/14 05:57:25;;;;;;;;;;;;;;;;;;5018778;28;19931;-84
2023/01/14 05:59:51;;;;;;;;;;;;;;;;;;5007493;28;19992;-85
2023/01/14 06:07:46;;;;;;;;;;;;;;;;;;5017082;28;19936;-84
2023/01/14 06:10:12;;;;;;;;;;;;;;;;;;5019165;28;20348;-86
2023/01/14 06:15:23;;;;;;;;;;;;;;;;;;5028881;28;19989;-80
2023/01/14 06:17:57;;;;;;;;;;;;;;;;;;5016514;28;19924;-80
2023/01/14 06:20:23;;;;;;;;;;;;;;;;;;5018141;28;19986;-81
2023/01/14 06:22:49;;;;;;;;;;;;;;;;;;5017133;28;19928;-79
2023/01/14 06:25:15;;;;;;;;;;;;;;;;;;5017216;28;19925;-81
2023/01/14 06:27:41;;;;;;;;;;;;;;;;;;5021168;28;19924;-81
2023/01/14 06:30:07;;;;;;;;;;;;;;;;;;5009986;28;20387;-87
2023/01/14 06:32:33;;;;;;;;;;;;;;;;;;5017732;28;19929;-79
2023/01/14 06:34:59;;;;;;;;;;;;;;;;;;5005739;28;20022;-79
2023/01/14 06:37:24;;;;;;;;;;;;;;;;;;5002331;28;19927;-79
2023/01/14 06:39:50;;;;;;;;;;;;;;;;;;5022091;28;19995;-79
2023/01/14 06:42:17;;;;;;;;;;;;;;;;;;5017518;28;19928;-80
2023/01/14 06:44:43;;;;;;;;;;;;;;;;;;5019905;28;20375;-80
2023/01/14 06:47:08;;;;;;;;;;;;;;;;;;5008138;28;19982;-79
2023/01/14 06:49:34;;;;;;;;;;;;;;;;;;5020650;28;19925;-82
2023/01/14 06:52:00;;;;;;;;;;;;;;;;;;5021381;28;20059;-84
2023/01/14 06:54:26;;;;;;;;;;;;;;;;;;5019932;28;19966;-87
2023/01/14 06:56:52;;;;;;;;;;;;;;;;;;5020957;28;20008;-85
2023/01/14 06:59:18;;;;;;;;;;;;;;;;;;5010373;28;19976;-85
2023/01/14 07:01:44;;;;;;;;;;;;;;;;;;5020565;28;19928;-85
2023/01/14 07:04:10;;;;;;;;;;;;;;;;;;5020408;28;19925;-84
2023/01/14 07:06:36;;;;;;;;;;;;;;;;;;5022671;28;19982;-84
2023/01/14 07:09:02;;;;;;;;;;;;;;;;;;5019870;28;19925;-80
2023/01/14 07:11:28;;;;;;;;;;;;;;;;;;5020915;28;19941;-81
2023/01/14 07:13:54;;;;;;;;;;;;;;;;;;5015366;28;21275;-81
2023/01/14 07:16:20;;;;;;;;;;;;;;;;;;5023765;28;19928;-87
2023/01/14 07:18:46;;;;;;;;;;;;;;;;;;5024507;28;20529;-83
2023/01/14 07:21:12;;;;;;;;;;;;;;;;;;5023668;28;20065;-83
2023/01/14 07:23:38;;;;;;;;;;;;;;;;;;5022545;28;19925;-83
2023/01/14 07:26:04;;;;;;;;;;;;;;;;;;5024734;28;19924;-81
2023/01/14 07:28:30;;;;;;;;;;;;;;;;;;5024617;28;19997;-83
2023/01/14 07:30:56;;;;;;;;;;;;;;;;;;5024691;28;19925;-81
2023/01/14 07:33:21;;;;;;;;;;;;;;;;;;5024504;28;20042;-81
2023/01/14 07:35:51;;;;;;;;;;;;;;;;;;5023840;28;19962;-82
2023/01/14 07:38:17;;;;;;;;;;;;;;;;;;5025055;28;19924;-83
2023/01/14 07:40:43;;;;;;;;;;;;;;;;;;5024384;28;19925;-80
2023/01/14 07:43:09;;;;;;;;;;;;;;;;;;5043324;28;19924;-82
2023/01/14 07:45:34;;;;;;;;;;;;;;;;;;5042966;28;21743;-81
2023/01/14 07:48:00;;;;;;;;;;;;;;;;;;5024060;28;19920;-84
2023/01/14 07:50:26;;;;;;;;;;;;;;;;;;5025131;28;19929;-85
2023/01/14 07:52:52;;;;;;;;;;;;;;;;;;5025111;28;19920;-85
2023/01/14 07:55:18;;;;;;;;;;;;;;;;;;5024331;28;19990;-85
2023/01/14 07:57:44;;;;;;;;;;;;;;;;;;5025191;28;20445;-86
2023/01/14 08:00:10;;;;;;;;;;;;;;;;;;5025493;28;20379;-85
2023/01/14 08:02:36;;;;;;;;;;;;;;;;;;5023333;28;20329;-87
2023/01/14 08:05:02;;;;;;;;;;;;;;;;;;5023967;28;19982;-85
2023/01/14 08:07:28;;;;;;;;;;;;;;;;;;5026487;28;19920;-88
2023/01/14 08:09:54;;;;;;;;;;;;;;;;;;5024376;28;20292;-89
2023/01/14 08:12:20;;;;;;;;;;;;;;;;;;5025479;28;20392;-88
2023/01/14 08:14:46;;;;;;;;;;;;;;;;;;5023917;28;20810;-88
2023/01/14 08:17:12;;;;;;;;;;;;;;;;;;5025953;28;19924;-91
2023/01/14 08:19:38;;;;;;;;;;;;;;;;;;5025187;28;19924;-89
2023/01/14 08:22:04;;;;;;;;;;;;;;;;;;5025555;28;20047;-91
2023/01/14 08:24:30;;;;;;;;;;;;;;;;;;5027844;28;20728;-90
2023/01/14 08:26:56;;;;;;;;;;;;;;;;;;5029966;28;19997;-88
2023/01/14 08:29:22;;;;;;;;;;;;;;;;;;5026580;28;20500;-88
2023/01/14 08:31:47;;;;;;;;;;;;;;;;;;5015491;28;19932;-89
2023/01/14 08:34:13;;;;;;;;;;;;;;;;;;5030481;28;20355;-93
2023/01/14 08:36:40;;;;;;;;;;;;;;;;;;5030496;28;19928;-90
2023/01/14 08:39:05;;;;;;;;;;;;;;;;;;5015118;28;19956;-89
2023/01/14 08:41:31;;;;;;;;;;;;;;;;;;5032443;28;20082;-90
2023/01/14 08:43:57;;;;;;;;;;;;;;;;;;5048450;28;19924;-91
2023/01/14 08:46:23;;;;;;;;;;;;;;;;;;5032920;28;19920;-90
2023/01/14 08:48:49;;;;;;;;;;;;;;;;;;5037981;28;20271;-91
2023/01/14 08:51:15;;;;;;;;;;;;;;;;;;5053569;28;19924;-92
2023/01/14 08:53:41;;;;;;;;;;;;;;;;;;5036012;28;19920;-90
2023/01/14 08:56:07;;;;;;;;;;;;;;;;;;5033282;28;19939;-93
2023/01/14 08:58:36;;;;;;;;;;;;;;;;;;5033369;28;19920;-91
2023/01/14 09:01:02;;;;;;;;;;;;;;;;;;5032379;28;19940;-88
2023/01/14 09:03:30;;;;;;;;;;;;;;;;;;5042616;28;19924;-87
2023/01/14 09:05:56;;;;;;;;;;;;;;;;;;5045112;28;21990;-85
2023/01/14 09:19:21;;;;;;;;;;;;;;;;;;5009146;28;20305;-89
2023/01/14 09:21:47;;;;;;;;;;;;;;;;;;5010117;28;19933;-87
2023/01/14 09:24:13;;;;;;;;;;;;;;;;;;4995648;28;20006;-92
2023/01/14 09:26:39;;;;;;;;;;;;;;;;;;4991333;28;19925;-94
2023/01/14 09:29:05;;;;;;;;;;;;;;;;;;5026280;28;19947;-95
2023/01/14 09:31:31;;;;;;;;;;;;;;;;;;5001697;28;19929;-84
2023/01/14 09:33:57;;;;;;;;;;;;;;;;;;5009319;28;19925;-90
2023/01/14 09:36:23;;;;;;;;;;;;;;;;;;5005425;28;19962;-86
2023/01/14 09:38:49;;;;;;;;;;;;;;;;;;5006823;28;19921;-87
2023/01/14 09:41:15;;;;;;;;;;;;;;;;;;5005439;28;19991;-78
2023/01/14 09:43:41;;;;;;;;;;;;;;;;;;5005639;28;19925;-78
2023/01/14 09:46:07;;;;;;;;;;;;;;;;;;5004709;28;19924;-81
2023/01/14 09:48:33;;;;;;;;;;;;;;;;;;5004452;28;20578;-76
2023/01/14 09:50:59;;;;;;;;;;;;;;;;;;5003497;28;19982;-79
2023/01/14 09:53:25;;;;;;;;;;;;;;;;;;5006158;28;20008;-80
2023/01/14 09:55:51;;;;;;;;;;;;;;;;;;5005053;28;19925;-78
2023/01/14 09:58:17;;;;;;;;;;;;;;;;;;5005265;28;19925;-79
2023/01/14 10:00:43;;;;;;;;;;;;;;;;;;5002916;28;19931;-79
2023/01/14 10:03:09;;;;;;;;;;;;;;;;;;5005531;28;19920;-79
2023/01/14 10:05:35;;;;;;;;;;;;;;;;;;5004522;28;19925;-80
2023/01/14 10:08:01;;;;;;;;;;;;;;;;;;4989309;28;19998;-78
2023/01/14 10:10:27;;;;;;;;;;;;;;;;;;5004213;28;19921;-81
2023/01/14 10:12:53;;;;;;;;;;;;;;;;;;5005235;28;20028;-80
2023/01/14 10:15:19;;;;;;;;;;;;;;;;;;5011550;28;19926;-79
2023/01/14 10:17:45;;;;;;;;;;;;;;;;;;5021626;28;19981;-80
2023/01/14 10:20:11;;;;;;;;;;;;;;;;;;5034726;28;19920;-93
2023/01/14 10:22:37;;;;;;;;;;;;;;;;;;5058948;28;19931;-92
2023/01/14 19:41:25;;;;;;;;;;;;;;;;;;1464508;26;19925;-77
2023/01/14 19:43:51;;;;;;;;;;;;;;;;;;4998390;28;20303;-77
2023/01/14 19:46:17;;;;;;;;;;;;;;;;;;4999372;28;19929;-77
2023/01/14 19:48:45;;;;;;;;;;;;;;;;;;4976611;28;19936;-76
2023/01/14 19:51:11;;;;;;;;;;;;;;;;;;4997579;28;19933;-77
2023/01/14 19:53:37;;;;;;;;;;;;;;;;;;4976793;28;20581;-76
2023/01/14 19:56:03;;;;;;;;;;;;;;;;;;4979193;28;19925;-76
2023/01/14 19:58:29;;;;;;;;;;;;;;;;;;4977432;28;20249;-77
2023/01/14 20:00:55;;;;;;;;;;;;;;;;;;4977260;28;20213;-78
2023/01/14 20:03:21;;;;;;;;;;;;;;;;;;4979484;28;19926;-79
2023/01/14 20:05:48;;;;;;;;;;;;;;;;;;4961965;28;20636;-78
2023/01/14 20:08:14;;;;;;;;;;;;;;;;;;4976946;28;19921;-77
2023/01/14 20:10:40;;;;;;;;;;;;;;;;;;4978757;28;19936;-77
2023/01/14 20:13:06;;;;;;;;;;;;;;;;;;4979797;28;20541;-76
2023/01/14 20:15:32;;;;;;;;;;;;;;;;;;4977792;28;19925;-77
2023/01/14 20:17:58;;;;;;;;;;;;;;;;;;4979637;28;19925;-77
2023/01/14 20:20:24;;;;;;;;;;;;;;;;;;4959794;28;20567;-75
2023/01/14 20:22:50;;;;;;;;;;;;;;;;;;4981664;28;19996;-75
2023/01/14 20:25:16;;;;;;;;;;;;;;;;;;4964991;28;19933;-76
2023/01/14 20:27:41;;;;;;;;;;;;;;;;;;4977788;28;19928;-77
2023/01/14 20:30:07;;;;;;;;;;;;;;;;;;4949042;28;19940;-80
2023/01/14 20:32:36;;;;;;;;;;;;;;;;;;4993791;28;19933;-79
2023/01/14 20:35:02;;;;;;;;;;;;;;;;;;4979818;28;19925;-77
2023/01/14 20:37:28;;;;;;;;;;;;;;;;;;4963162;28;19932;-79
2023/01/14 20:39:54;;;;;;;;;;;;;;;;;;4979567;28;19929;-77
2023/01/14 20:42:20;;;;;;;;;;;;;;;;;;4976839;28;19944;-77
2023/01/14 20:44:58;;;;;;;;;;;;;;;;;;4977840;28;19925;-76
2023/01/14 20:47:24;;;;;;;;;;;;;;;;;;4976158;28;19960;-77
2023/01/14 20:49:50;;;;;;;;;;;;;;;;;;4977925;28;20040;-76
2023/01/14 20:52:16;;;;;;;;;;;;;;;;;;4980578;28;19937;-78
2023/01/14 20:54:43;;;;;;;;;;;;;;;;;;4975156;28;19925;-77
2023/01/14 20:57:09;;;;;;;;;;;;;;;;;;4978011;28;19955;-77
2023/01/14 20:59:36;;;;;;;;;;;;;;;;;;4977686;28;19925;-78
2023/01/14 21:02:02;;;;;;;;;;;;;;;;;;4975825;28;19926;-77
2023/01/14 21:04:28;;;;;;;;;;;;;;;;;;4976739;28;19921;-78
2023/01/14 21:06:54;;;;;;;;;;;;;;;;;;4975401;28;19941;-76
2023/01/14 21:09:20;;;;;;;;;;;;;;;;;;4981343;28;19948;-77
2023/01/14 21:11:46;;;;;;;;;;;;;;;;;;4975523;28;19931;-74
2023/01/14 21:25:12;;;;;;;;;;;;;;;;;;4976683;28;19979;-76
2023/01/14 21:27:38;;;;;;;;;;;;;;;;;;4977021;28;19925;-75
2023/01/14 21:30:04;;;;;;;;;;;;;;;;;;4978069;28;20414;-77
2023/01/14 21:32:29;;;;;;;;;;;;;;;;;;4975642;28;19921;-76
2023/01/14 21:34:56;;;;;;;;;;;;;;;;;;4997551;28;19967;-76
2023/01/14 21:37:22;;;;;;;;;;;;;;;;;;4994955;28;20004;-77
2023/01/14 21:39:48;;;;;;;;;;;;;;;;;;4975034;28;19931;-77
2023/01/14 21:44:58;;;;;;;;;;;;;;;;;;4976438;28;19979;-73
2023/01/14 21:47:24;;;;;;;;;;;;;;;;;;4995328;28;20012;-77
2023/01/14 21:49:52;;;;;;;;;;;;;;;;;;4977945;28;19987;-76
2023/01/14 21:52:18;;;;;;;;;;;;;;;;;;4975694;28;19936;-77
2023/01/14 21:54:44;;;;;;;;;;;;;;;;;;4977838;28;19926;-77
2023/01/14 21:57:10;;;;;;;;;;;;;;;;;;4973835;28;20147;-74
2023/01/14 21:59:36;;;;;;;;;;;;;;;;;;4977167;28;19928;-75
2023/01/14 22:02:02;;;;;;;;;;;;;;;;;;4976197;28;21624;-76
2023/01/14 22:04:28;;;;;;;;;;;;;;;;;;4977111;28;20628;-79
2023/01/14 22:06:55;;;;;;;;;;;;;;;;;;4976495;28;19934;-76
2023/01/14 22:09:21;;;;;;;;;;;;;;;;;;4960217;28;19926;-76
2023/01/14 22:11:47;;;;;;;;;;;;;;;;;;4995716;28;19936;-74
2023/01/14 22:14:13;;;;;;;;;;;;;;;;;;4976220;28;20251;-75
2023/01/14 22:16:39;;;;;;;;;;;;;;;;;;4995552;28;19925;-74
2023/01/14 22:19:05;;;;;;;;;;;;;;;;;;4998024;28;20399;-74
2023/01/14 22:21:31;;;;;;;;;;;;;;;;;;4981716;28;20276;-75
2023/01/14 22:23:57;;;;;;;;;;;;;;;;;;4999495;28;19925;-79
2023/01/14 22:26:23;;;;;;;;;;;;;;;;;;4984542;28;19921;-81
2023/01/14 22:28:49;;;;;;;;;;;;;;;;;;4977069;28;20340;-81
2023/01/14 22:31:15;;;;;;;;;;;;;;;;;;4978522;28;19965;-81
2023/01/14 22:33:41;;;;;;;;;;;;;;;;;;4978548;28;19921;-79
2023/01/14 22:36:07;;;;;;;;;;;;;;;;;;4980558;28;19926;-79
2023/01/14 22:38:33;;;;;;;;;;;;;;;;;;4978245;28;19925;-78
2023/01/14 22:40:59;;;;;;;;;;;;;;;;;;4999071;28;19917;-81
2023/01/14 22:43:25;;;;;;;;;;;;;;;;;;4945327;28;20116;-80
2023/01/14 22:45:51;;;;;;;;;;;;;;;;;;4961561;28;20708;-79
2023/01/14 22:48:17;;;;;;;;;;;;;;;;;;4960439;28;20355;-80
2023/01/14 22:50:43;;;;;;;;;;;;;;;;;;4956807;28;20228;-83
2023/01/14 22:53:09;;;;;;;;;;;;;;;;;;4958880;28;19929;-79
2023/01/14 22:55:35;;;;;;;;;;;;;;;;;;4960236;28;19932;-79
2023/01/14 22:58:01;;;;;;;;;;;;;;;;;;4961506;28;19968;-78
2023/01/14 23:00:27;;;;;;;;;;;;;;;;;;4956547;28;19929;-79
2023/01/14 23:02:52;;;;;;;;;;;;;;;;;;4961320;28;19929;-79
2023/01/14 23:05:18;;;;;;;;;;;;;;;;;;4958429;28;19921;-79
2023/01/14 23:07:44;;;;;;;;;;;;;;;;;;4979512;28;19979;-80
2023/01/14 23:10:10;;;;;;;;;;;;;;;;;;4956201;28;19979;-81
2023/01/14 23:12:36;;;;;;;;;;;;;;;;;;4961781;28;19933;-80
2023/01/14 23:15:02;;;;;;;;;;;;;;;;;;4959968;28;19936;-80
2023/01/14 23:17:29;;;;;;;;;;;;;;;;;;4959864;28;19921;-78
2023/01/14 23:19:55;;;;;;;;;;;;;;;;;;4944797;28;19921;-79
2023/01/14 23:25:06;;;;;;;;;;;;;;;;;;4960154;28;20299;-80
2023/01/14 23:27:32;;;;;;;;;;;;;;;;;;4958743;28;19972;-79
2023/01/14 23:29:58;;;;;;;;;;;;;;;;;;4959241;28;20000;-79
2023/01/14 23:32:24;;;;;;;;;;;;;;;;;;4960609;28;20061;-80
2023/01/14 23:34:49;;;;;;;;;;;;;;;;;;4977172;28;19936;-79
2023/01/14 23:37:15;;;;;;;;;;;;;;;;;;4959903;28;19972;-79
2023/01/14 23:39:41;;;;;;;;;;;;;;;;;;4958819;28;20015;-80
2023/01/14 23:42:07;;;;;;;;;;;;;;;;;;4959379;28;19929;-82
2023/01/14 23:44:33;;;;;;;;;;;;;;;;;;4961090;28;19925;-80
2023/01/14 23:46:59;;;;;;;;;;;;;;;;;;4962492;28;19925;-83
2023/01/14 23:49:25;;;;;;;;;;;;;;;;;;4962588;28;20020;-85
2023/01/14 23:51:51;;;;;;;;;;;;;;;;;;4982743;28;20016;-84
2023/01/14 23:54:17;;;;;;;;;;;;;;;;;;4965263;28;19967;-84
2023/01/14 23:56:43;;;;;;;;;;;;;;;;;;4961445;28;19925;-82
2023/01/14 23:59:09;;;;;;;;;;;;;;;;;;4963169;28;19921;-78
